createdAt,value
2022-08-14T00:02:21.570Z,80.08
2022-08-14T00:04:50.717Z,79.84
2022-08-14T00:07:17.684Z,79.87
2022-08-14T00:09:55.876Z,79.71
2022-08-14T00:12:33.519Z,79.48
2022-08-14T00:15:09.527Z,79.54
2022-08-14T00:17:37.914Z,79.72
2022-08-14T00:20:09.707Z,79.95
2022-08-14T00:22:56.580Z,79.82
2022-08-14T00:25:22.156Z,79.92
2022-08-14T00:27:49.099Z,79.85
2022-08-14T00:30:20.872Z,79.57
2022-08-14T00:32:51.817Z,79.29
2022-08-14T00:35:19.573Z,79.43
2022-08-14T00:37:45.928Z,79.28
2022-08-14T00:40:19.179Z,79.42
2022-08-14T00:42:59.533Z,79.88
2022-08-14T00:45:26.090Z,80.02
2022-08-14T00:47:57.749Z,79.91
2022-08-14T00:50:29.758Z,80.05
2022-08-14T00:52:59.468Z,80.33
2022-08-14T00:55:27.336Z,80.37
2022-08-14T00:58:32.501Z,80.08
2022-08-14T01:01:08.520Z,79.95
2022-08-14T01:03:37.360Z,79.73
2022-08-14T01:06:07.111Z,79.97
2022-08-14T01:08:51.886Z,79.99
2022-08-14T01:11:21.512Z,80.03
2022-08-14T01:13:56.244Z,79.70
2022-08-14T01:16:29.985Z,79.87
2022-08-14T01:19:16.484Z,80.04
2022-08-14T01:21:47.333Z,80.40
2022-08-14T01:24:24.651Z,80.36
2022-08-14T01:26:58.948Z,80.07
2022-08-14T01:29:59.181Z,79.83
2022-08-14T01:32:22.798Z,79.78
2022-08-14T01:35:20.041Z,79.67
2022-08-14T01:37:54.428Z,80.16
2022-08-14T01:40:36.281Z,80.21
2022-08-14T01:43:15.027Z,80.20
2022-08-14T01:45:42.050Z,79.92
2022-08-14T01:48:13.935Z,79.96
2022-08-14T01:50:42.219Z,79.94
2022-08-14T01:53:09.117Z,79.82
2022-08-14T01:55:38.605Z,79.97
2022-08-14T01:58:19.596Z,80.11
2022-08-14T02:00:55.927Z,80.04
2022-08-14T02:03:29.896Z,79.90
2022-08-14T02:05:58.973Z,79.87
2022-08-14T02:08:35.515Z,79.62
2022-08-14T02:11:21.592Z,79.59
2022-08-14T02:13:59.602Z,79.50
2022-08-14T02:16:40.047Z,79.66
2022-08-14T02:19:12.777Z,79.69
2022-08-14T02:21:43.691Z,79.67
2022-08-14T02:24:38.855Z,79.38
2022-08-14T02:28:24.383Z,79.39
2022-08-14T02:30:00.684Z,79.46
2022-08-14T02:32:37.010Z,79.39
2022-08-14T02:35:17.960Z,79.42
2022-08-14T02:37:49.612Z,79.60
2022-08-14T02:40:20.625Z,79.55
2022-08-14T02:42:59.413Z,79.48
2022-08-14T02:45:33.368Z,79.24
2022-08-14T02:48:06.949Z,78.95
2022-08-14T02:50:39.372Z,79.05
2022-08-14T02:53:05.589Z,78.88
2022-08-14T02:55:33.862Z,78.82
2022-08-14T02:58:03.262Z,79.06
2022-08-14T03:00:32.296Z,79.04
2022-08-14T03:02:59.343Z,79.19
2022-08-14T03:05:29.729Z,79.07
2022-08-14T03:08:31.448Z,79.22
2022-08-14T03:11:06.015Z,79.07
2022-08-14T03:13:35.245Z,79.19
2022-08-14T03:16:08.894Z,79.08
2022-08-14T03:18:41.784Z,78.95
2022-08-14T03:21:12.675Z,78.89
2022-08-14T03:23:41.745Z,78.79
2022-08-14T03:26:12.971Z,78.47
2022-08-14T03:28:50.286Z,78.55
2022-08-14T03:31:23.756Z,78.79
2022-08-14T03:33:54.252Z,78.88
2022-08-14T03:37:37.816Z,78.68
2022-08-14T03:39:14.960Z,78.68
2022-08-14T03:41:54.491Z,78.82
2022-08-14T03:45:18.537Z,78.55
2022-08-14T03:47:08.173Z,78.63
2022-08-14T03:49:34.992Z,78.64
2022-08-14T03:52:07.863Z,78.36
2022-08-14T03:54:53.117Z,78.14
2022-08-14T03:57:19.687Z,78.24
2022-08-14T03:59:49.137Z,78.42
2022-08-14T04:02:32.562Z,78.36
2022-08-14T04:05:12.291Z,78.52
2022-08-14T04:07:50.068Z,78.46
2022-08-14T04:10:32.520Z,78.37
2022-08-14T04:13:04.247Z,78.33
2022-08-14T04:15:52.694Z,78.53
2022-08-14T04:18:20.149Z,78.62
2022-08-14T04:20:51.578Z,78.55
2022-08-14T04:23:23.698Z,78.53
2022-08-14T04:25:55.519Z,78.69
2022-08-14T04:29:07.484Z,78.66
2022-08-14T04:31:09.089Z,78.65
2022-08-14T04:33:37.172Z,78.62
2022-08-14T04:36:04.304Z,78.56
2022-08-14T04:38:48.992Z,78.50
2022-08-14T04:41:53.504Z,78.51
2022-08-14T04:44:26.571Z,78.54
2022-08-14T04:47:21.073Z,78.39
2022-08-14T04:49:57.348Z,78.23
2022-08-14T04:52:24.873Z,78.32
2022-08-14T04:54:51.858Z,78.18
2022-08-14T04:57:18.184Z,78.00
2022-08-14T04:59:45.502Z,78.05
2022-08-14T05:02:13.112Z,77.94
2022-08-14T05:04:40.196Z,77.88
2022-08-14T05:07:46.296Z,77.99
2022-08-14T05:10:12.676Z,78.15
2022-08-14T05:13:13.807Z,78.18
2022-08-14T05:15:28.868Z,77.90
2022-08-14T05:18:17.074Z,77.97
2022-08-14T05:21:57.676Z,78.02
2022-08-14T05:23:38.705Z,77.76
2022-08-14T05:26:16.556Z,77.86
2022-08-14T05:28:45.353Z,77.77
2022-08-14T05:31:13.598Z,77.69
2022-08-14T05:33:56.947Z,77.47
2022-08-14T05:36:24.308Z,77.53
2022-08-14T05:38:52.340Z,77.44
2022-08-14T05:41:19.619Z,77.44
2022-08-14T05:43:47.398Z,77.56
2022-08-14T05:46:17.950Z,77.60
2022-08-14T05:48:48.768Z,77.72
2022-08-14T05:51:15.248Z,77.82
2022-08-14T05:53:42.648Z,77.91
2022-08-14T05:56:08.997Z,77.82
2022-08-14T05:58:40.967Z,77.67
2022-08-14T06:01:08.944Z,77.86
2022-08-14T06:03:36.441Z,78.04
2022-08-14T06:06:02.774Z,77.97
2022-08-14T06:08:35.997Z,77.99
2022-08-14T06:11:08.179Z,78.01
2022-08-14T06:13:45.656Z,77.78
2022-08-14T06:16:17.474Z,77.77
2022-08-14T06:18:46.664Z,77.59
2022-08-14T06:21:15.254Z,77.43
2022-08-14T06:23:41.448Z,77.56
2022-08-14T06:26:09.436Z,77.33
2022-08-14T06:28:36.500Z,77.51
2022-08-14T06:31:06.766Z,77.57
2022-08-14T06:35:04.018Z,77.43
2022-08-14T06:36:19.699Z,77.21
2022-08-14T06:38:46.213Z,77.10
2022-08-14T06:41:19.125Z,77.27
2022-08-14T06:43:49.131Z,77.40
2022-08-14T06:46:23.072Z,77.37
2022-08-14T06:48:59.163Z,77.24
2022-08-14T06:51:25.358Z,77.27
2022-08-14T06:54:05.297Z,77.21
2022-08-14T06:56:34.740Z,77.46
2022-08-14T06:59:01.326Z,77.60
2022-08-14T07:01:50.106Z,77.68
2022-08-14T07:04:35.174Z,77.73
2022-08-14T07:07:01.903Z,77.68
2022-08-14T07:09:44.125Z,77.72
2022-08-14T07:12:35.001Z,77.67
2022-08-14T07:15:05.662Z,77.79
2022-08-14T07:17:32.053Z,77.96
2022-08-14T07:20:00.755Z,77.86
2022-08-14T07:22:49.756Z,78.05
2022-08-14T07:25:13.552Z,77.81
2022-08-14T07:27:42.846Z,77.95
2022-08-14T07:30:33.923Z,78.09
2022-08-14T07:32:56.511Z,78.35
2022-08-14T07:35:22.651Z,78.39
2022-08-14T07:37:49.883Z,78.59
2022-08-14T07:40:27.332Z,78.79
2022-08-14T07:42:55.288Z,78.78
2022-08-14T07:45:21.940Z,78.82
2022-08-14T07:47:49.141Z,78.79
2022-08-14T07:50:18.693Z,78.75
2022-08-14T07:52:48.854Z,78.72
2022-08-14T07:55:16.420Z,78.47
2022-08-14T07:57:47.768Z,78.33
2022-08-14T08:00:31.635Z,78.36
2022-08-14T08:03:00.256Z,78.84
2022-08-14T08:05:27.258Z,78.99
2022-08-14T08:07:54.079Z,79.14
2022-08-14T08:11:01.647Z,79.10
2022-08-14T08:13:24.165Z,79.15
2022-08-14T08:15:53.418Z,79.08
2022-08-14T08:18:27.504Z,79.22
2022-08-14T08:20:59.604Z,79.13
2022-08-14T08:23:34.431Z,79.31
2022-08-14T08:26:06.589Z,79.43
2022-08-14T08:28:34.347Z,79.37
2022-08-14T08:31:02.960Z,79.24
2022-08-14T08:33:37.054Z,79.16
2022-08-14T08:36:07.945Z,78.82
2022-08-14T08:39:17.878Z,78.30
2022-08-14T08:41:21.714Z,78.68
2022-08-14T08:43:47.824Z,78.68
2022-08-14T08:46:21.442Z,78.95
2022-08-14T08:51:34.231Z,78.92
2022-08-14T08:54:18.431Z,78.97
2022-08-14T08:56:52.044Z,79.43
2022-08-14T08:59:22.142Z,79.56
2022-08-14T09:02:10.180Z,79.53
2022-08-14T09:04:45.741Z,79.28
2022-08-14T09:07:25.926Z,79.36
2022-08-14T09:09:59.401Z,79.46
2022-08-14T09:12:32.631Z,79.25
2022-08-14T09:15:12.450Z,79.53
2022-08-14T09:17:41.195Z,79.54
2022-08-14T09:20:08.000Z,79.38
2022-08-14T09:22:47.403Z,79.56
2022-08-14T09:25:19.645Z,79.69
2022-08-14T09:27:46.477Z,79.81
2022-08-14T09:30:32.286Z,79.84
2022-08-14T09:33:06.082Z,79.83
2022-08-14T09:35:55.079Z,79.83
2022-08-14T09:38:35.091Z,79.50
2022-08-14T09:41:17.853Z,79.78
2022-08-14T09:44:08.464Z,79.90
2022-08-14T09:46:35.242Z,79.82
2022-08-14T09:49:05.453Z,79.82
2022-08-14T09:51:44.991Z,79.75
2022-08-14T09:54:23.271Z,79.79
2022-08-14T09:56:56.574Z,79.94
2022-08-14T09:59:25.931Z,79.91
2022-08-14T10:01:56.370Z,80.02
2022-08-14T10:04:32.970Z,79.86
2022-08-14T10:07:01.557Z,79.69
2022-08-14T10:09:29.447Z,79.72
2022-08-14T10:12:04.597Z,79.74
2022-08-14T10:14:36.106Z,79.85
2022-08-14T10:17:04.996Z,79.93
2022-08-14T10:19:35.590Z,79.67
2022-08-14T10:23:14.855Z,79.75
2022-08-14T10:24:55.127Z,79.42
2022-08-14T10:27:24.246Z,79.41
2022-08-14T10:29:58.129Z,79.70
2022-08-14T10:32:29.211Z,79.94
2022-08-14T10:35:13.788Z,79.95
2022-08-14T10:37:49.337Z,80.55
2022-08-14T10:40:38.629Z,80.82
2022-08-14T10:43:27.049Z,80.59
2022-08-14T10:46:03.426Z,80.37
2022-08-14T10:49:02.930Z,80.12
2022-08-14T10:51:36.424Z,79.97
2022-08-14T10:54:17.153Z,79.75
2022-08-14T10:56:57.810Z,79.72
2022-08-14T10:59:31.263Z,79.76
2022-08-14T11:02:03.526Z,79.71
2022-08-14T11:04:31.065Z,79.63
2022-08-14T11:06:57.482Z,79.46
2022-08-14T11:09:26.301Z,79.49
2022-08-14T11:11:56.364Z,79.57
2022-08-14T11:14:49.367Z,79.31
2022-08-14T11:17:15.748Z,79.51
2022-08-14T11:19:53.882Z,79.44
2022-08-14T11:22:55.706Z,79.42
2022-08-14T11:25:11.269Z,79.69
2022-08-14T11:27:44.694Z,79.53
2022-08-14T11:30:50.916Z,79.57
2022-08-14T11:33:03.156Z,79.49
2022-08-14T11:35:44.265Z,79.49
2022-08-14T11:38:14.414Z,79.29
2022-08-14T11:40:43.550Z,79.07
2022-08-14T11:43:14.724Z,79.14
2022-08-14T11:45:47.143Z,79.08
2022-08-14T11:49:03.016Z,79.01
2022-08-14T11:51:23.773Z,78.73
2022-08-14T11:54:02.384Z,78.69
2022-08-14T11:56:35.887Z,78.47
2022-08-14T11:59:02.089Z,78.47
2022-08-14T12:01:30.553Z,78.70
2022-08-14T12:04:21.786Z,78.96
2022-08-14T12:07:00.130Z,78.96
2022-08-14T12:09:32.979Z,79.12
2022-08-14T12:12:00.304Z,78.92
2022-08-14T12:14:34.608Z,79.38
2022-08-14T12:17:12.558Z,79.39
2022-08-14T12:20:00.348Z,79.66
2022-08-14T12:22:40.088Z,79.34
2022-08-14T12:25:11.708Z,79.75
2022-08-14T12:27:53.220Z,79.59
2022-08-14T12:30:43.940Z,79.35
2022-08-14T12:33:32.941Z,79.27
2022-08-14T12:36:04.791Z,79.25
2022-08-14T12:38:33.443Z,79.31
2022-08-14T12:41:08.307Z,79.06
2022-08-14T12:43:45.600Z,79.33
2022-08-14T12:46:40.657Z,79.59
2022-08-14T12:49:13.188Z,79.40
2022-08-14T12:51:44.105Z,79.44
2022-08-14T12:54:26.079Z,79.17
2022-08-14T12:57:13.601Z,79.23
2022-08-14T12:59:45.364Z,79.30
2022-08-14T13:02:36.943Z,79.24
2022-08-14T13:05:03.884Z,79.23
2022-08-14T13:07:33.966Z,79.02
2022-08-14T13:10:46.210Z,79.03
2022-08-14T13:13:12.701Z,79.07
2022-08-14T13:15:35.934Z,78.82
2022-08-14T13:18:04.205Z,79.14
2022-08-14T13:20:32.790Z,79.07
2022-08-14T13:23:01.744Z,79.18
2022-08-14T13:25:28.772Z,79.11
2022-08-14T13:27:58.761Z,79.37
2022-08-14T13:30:26.754Z,79.14
2022-08-14T13:32:54.435Z,79.20
2022-08-14T13:35:25.037Z,79.21
2022-08-14T13:37:52.409Z,78.86
2022-08-14T13:40:22.052Z,78.93
2022-08-14T13:42:54.648Z,78.70
2022-08-14T13:45:23.476Z,78.97
2022-08-14T13:48:00.845Z,78.85
2022-08-14T13:50:27.023Z,78.75
2022-08-14T13:52:54.754Z,78.85
2022-08-14T13:55:25.491Z,78.93
2022-08-14T13:58:03.957Z,78.62
2022-08-14T14:00:53.572Z,78.57
2022-08-14T14:03:23.117Z,78.39
2022-08-14T14:05:54.752Z,78.18
2022-08-14T14:08:45.699Z,78.28
2022-08-14T14:11:09.709Z,78.08
2022-08-14T14:13:44.775Z,78.05
2022-08-14T14:16:15.254Z,77.99
2022-08-14T14:18:51.983Z,77.92
2022-08-14T14:21:19.935Z,78.11
2022-08-14T14:23:49.420Z,77.81
2022-08-14T14:26:22.997Z,77.82
2022-08-14T14:28:54.760Z,77.74
2022-08-14T14:31:24.188Z,77.76
2022-08-14T14:33:59.395Z,77.79
2022-08-14T14:36:29.617Z,77.66
2022-08-14T14:39:01.820Z,77.62
2022-08-14T14:41:38.058Z,77.61
2022-08-14T14:44:15.688Z,77.51
2022-08-14T14:46:49.189Z,77.49
2022-08-14T14:49:21.772Z,77.51
2022-08-14T14:51:51.347Z,77.50
2022-08-14T14:54:30.976Z,77.43
2022-08-14T14:57:00.253Z,77.40
2022-08-14T14:59:33.241Z,77.32
2022-08-14T15:02:05.657Z,77.33
2022-08-14T15:04:38.386Z,77.36
2022-08-14T15:07:06.148Z,77.39
2022-08-14T15:09:33.720Z,77.39
2022-08-14T15:12:00.122Z,77.37
2022-08-14T15:14:56.815Z,77.40
2022-08-14T15:17:12.593Z,77.37
2022-08-14T15:19:39.721Z,77.39
2022-08-14T15:22:06.539Z,77.46
2022-08-14T15:24:34.128Z,77.48
2022-08-14T15:27:04.861Z,77.59
2022-08-14T15:29:31.657Z,77.73
2022-08-14T15:31:57.885Z,77.79
2022-08-14T15:34:43.537Z,77.85
2022-08-14T15:37:13.119Z,77.76
2022-08-14T15:39:44.396Z,77.73
2022-08-14T15:42:16.345Z,77.85
2022-08-14T15:44:56.854Z,77.78
2022-08-14T15:47:27.985Z,77.90
2022-08-14T15:50:00.614Z,77.85
2022-08-14T15:52:35.632Z,77.93
2022-08-14T15:55:09.240Z,77.95
2022-08-14T15:57:36.659Z,78.04
2022-08-14T16:00:43.805Z,77.82
2022-08-14T16:03:15.560Z,77.90
2022-08-14T16:05:43.539Z,77.80
2022-08-14T16:08:29.010Z,77.66
2022-08-14T16:11:02.601Z,77.61
2022-08-14T16:13:39.661Z,77.65
2022-08-14T16:16:49.974Z,77.72
2022-08-14T16:19:12.685Z,77.69
2022-08-14T16:21:40.469Z,77.79
2022-08-14T16:24:07.820Z,77.85
2022-08-14T16:26:54.686Z,77.93
2022-08-14T16:29:28.472Z,77.78
2022-08-14T16:31:59.677Z,77.76
2022-08-14T16:34:44.087Z,77.87
2022-08-14T16:37:18.275Z,77.61
2022-08-14T16:39:46.995Z,77.64
2022-08-14T16:42:38.710Z,77.84
2022-08-14T16:45:01.873Z,77.87
2022-08-14T16:47:32.016Z,77.87
2022-08-14T16:50:04.581Z,77.99
2022-08-14T16:52:44.265Z,77.97
2022-08-14T16:55:12.296Z,77.89
2022-08-14T16:57:53.651Z,77.92
2022-08-14T17:00:43.680Z,77.92
2022-08-14T17:03:12.247Z,77.96
2022-08-14T17:05:41.587Z,78.02
2022-08-14T17:08:33.474Z,77.92
2022-08-14T17:11:11.052Z,77.94
2022-08-14T17:13:59.549Z,77.91
2022-08-14T17:16:37.723Z,77.96
2022-08-14T17:19:14.152Z,77.97
2022-08-14T17:21:47.245Z,78.11
2022-08-14T17:24:51.656Z,78.27
2022-08-14T17:27:07.386Z,78.37
2022-08-14T17:29:56.082Z,78.36
2022-08-14T17:32:30.004Z,78.64
2022-08-14T17:35:16.880Z,78.61
2022-08-14T17:37:45.697Z,78.53
2022-08-14T17:40:26.148Z,78.45
2022-08-14T17:43:02.054Z,78.42
2022-08-14T17:45:41.437Z,78.43
2022-08-14T17:49:10.158Z,78.72
2022-08-14T17:51:14.268Z,78.89
2022-08-14T17:53:53.592Z,78.79
2022-08-14T17:56:30.751Z,78.53
2022-08-14T17:59:04.969Z,78.23
2022-08-14T18:01:37.252Z,78.08
2022-08-14T18:04:24.374Z,78.01
2022-08-14T18:06:58.588Z,78.05
2022-08-14T18:09:56.344Z,78.09
2022-08-14T18:12:32.738Z,77.95
2022-08-14T18:15:14.517Z,77.93
2022-08-14T18:17:52.822Z,77.98
2022-08-14T18:21:42.678Z,78.01
2022-08-14T18:23:14.002Z,78.00
2022-08-14T18:25:54.445Z,77.95
2022-08-14T18:28:40.107Z,77.94
2022-08-14T18:31:21.134Z,77.73
2022-08-14T18:33:59.606Z,77.81
2022-08-14T18:36:47.235Z,77.92
2022-08-14T18:40:03.526Z,77.98
2022-08-14T18:42:23.449Z,78.33
2022-08-14T18:44:50.938Z,78.44
2022-08-14T18:47:25.586Z,78.72
2022-08-14T18:50:00.278Z,78.82
2022-08-14T18:52:32.038Z,78.87
2022-08-14T18:55:20.999Z,78.93
2022-08-14T18:57:54.711Z,78.90
2022-08-14T19:00:50.940Z,78.94
2022-08-14T19:03:18.543Z,78.95
2022-08-14T19:05:50.827Z,78.85
2022-08-14T19:08:25.230Z,78.85
2022-08-14T19:11:01.914Z,78.92
2022-08-14T19:13:47.933Z,78.84
2022-08-14T19:16:26.308Z,78.79
2022-08-14T19:18:54.089Z,78.86
2022-08-14T19:21:36.054Z,79.03
2022-08-14T19:24:29.676Z,79.10
2022-08-14T19:27:26.418Z,79.16
2022-08-14T19:30:19.702Z,79.11
2022-08-14T19:32:50.737Z,79.14
2022-08-14T19:35:24.615Z,79.29
2022-08-14T19:37:57.823Z,79.18
2022-08-14T19:40:33.985Z,79.13
2022-08-14T19:43:08.976Z,79.11
2022-08-14T19:45:38.240Z,79.24
2022-08-14T19:48:12.937Z,79.33
2022-08-14T19:50:44.273Z,79.31
2022-08-14T19:53:17.618Z,79.27
2022-08-14T19:56:01.895Z,79.26
2022-08-14T19:58:54.925Z,79.38
2022-08-14T20:01:37.202Z,79.37
2022-08-14T20:04:47.494Z,79.42
2022-08-14T20:07:59.460Z,79.30
2022-08-14T20:11:07.901Z,79.17
2022-08-14T20:13:32.710Z,79.33
2022-08-14T20:16:11.896Z,79.54
2022-08-14T20:18:49.602Z,79.52
2022-08-14T20:21:19.368Z,79.58
2022-08-14T20:23:48.295Z,79.62
2022-08-14T20:26:31.354Z,79.63
2022-08-14T20:29:04.639Z,79.46
2022-08-14T20:31:37.318Z,79.43
2022-08-14T20:34:07.402Z,79.39
2022-08-14T20:36:40.261Z,79.42
2022-08-14T20:39:15.228Z,79.26
2022-08-14T20:41:51.069Z,79.21
2022-08-14T20:44:40.719Z,79.19
2022-08-14T20:47:14.608Z,79.06
2022-08-14T20:49:42.070Z,78.99
2022-08-14T20:52:20.004Z,79.07
2022-08-14T20:54:51.009Z,79.14
2022-08-14T20:57:18.952Z,79.03
2022-08-14T20:59:51.789Z,78.99
2022-08-14T21:02:38.368Z,79.04
2022-08-14T21:05:16.879Z,79.11
2022-08-14T21:07:50.991Z,79.18
2022-08-14T21:10:36.246Z,79.14
2022-08-14T21:13:26.791Z,79.14
2022-08-14T21:15:56.608Z,79.16
2022-08-14T21:18:28.710Z,79.14
2022-08-14T21:21:00.370Z,79.02
2022-08-14T21:23:35.214Z,79.24
2022-08-14T21:26:52.382Z,79.07
2022-08-14T21:29:14.193Z,78.68
2022-08-14T21:31:55.874Z,78.69
2022-08-14T21:34:30.906Z,78.59
2022-08-14T21:37:08.928Z,78.54
2022-08-14T21:39:37.446Z,78.72
2022-08-14T21:42:05.495Z,78.79
2022-08-14T21:44:43.457Z,78.76
2022-08-14T21:47:12.902Z,78.93
2022-08-14T21:49:40.156Z,78.98
2022-08-14T21:52:49.238Z,79.04
2022-08-14T21:55:09.628Z,79.22
2022-08-14T21:58:44.835Z,79.26
2022-08-14T22:00:36.597Z,79.20
2022-08-14T22:03:09.946Z,79.14
2022-08-14T22:05:41.334Z,79.17
2022-08-14T22:08:12.344Z,79.22
2022-08-14T22:10:46.520Z,79.20
2022-08-14T22:13:18.245Z,79.03
2022-08-14T22:15:49.456Z,79.04
2022-08-14T22:18:20.674Z,78.98
2022-08-14T22:20:53.836Z,78.94
2022-08-14T22:23:24.477Z,78.69
2022-08-14T22:25:52.814Z,78.61
2022-08-14T22:28:33.159Z,78.70
2022-08-14T22:31:03.007Z,78.54
2022-08-14T22:33:30.984Z,78.31
2022-08-14T22:35:58.413Z,78.56
2022-08-14T22:38:36.417Z,78.50
2022-08-14T22:41:25.708Z,78.54
2022-08-14T22:43:55.983Z,78.57
2022-08-14T22:46:23.001Z,78.54
2022-08-14T22:48:50.503Z,78.43
2022-08-14T22:51:19.857Z,78.42
2022-08-14T22:53:48.674Z,78.45
2022-08-14T22:56:20.866Z,78.06
2022-08-14T22:58:54.079Z,78.12
2022-08-14T23:01:56.090Z,77.96
2022-08-14T23:04:35.156Z,77.99
2022-08-14T23:07:22.074Z,77.98
2022-08-14T23:10:33.099Z,77.59
2022-08-14T23:12:54.450Z,77.55
2022-08-14T23:15:24.085Z,77.31
2022-08-14T23:17:50.548Z,77.08
2022-08-14T23:20:20.964Z,77.20
2022-08-14T23:22:51.794Z,77.05
2022-08-14T23:25:49.994Z,76.98
2022-08-14T23:28:34.641Z,76.92
2022-08-14T23:31:02.556Z,76.95
2022-08-14T23:33:33.960Z,76.92
2022-08-14T23:36:04.299Z,76.77
2022-08-14T23:38:51.571Z,76.77
2022-08-14T23:41:20.374Z,76.59
2022-08-14T23:43:49.809Z,76.50
2022-08-14T23:46:19.149Z,76.53
2022-08-14T23:48:46.542Z,76.44
2022-08-14T23:51:15.442Z,76.66
2022-08-14T23:53:47.747Z,76.68
2022-08-14T23:56:31.722Z,76.47
2022-08-14T23:59:00.381Z,76.52
